My webcam  My webcam


Onweer radar Meer informatie blitzortung!


Lokaal brand risico:
CBI


Regionaal brand risico: Meer informatie


Regen radar Meer informatie rain snow radar


test


Het weer levert geen direct gevaar op.    Er zijn geen waarschuwingen afgegeven.

Notice: Undefined offset: 5 in /home/meteosle/domains/meteo-sleen.nl/public_html/weather2/metar/metarDisplay.php on line 75

Notice: Undefined offset: 6 in /home/meteosle/domains/meteo-sleen.nl/public_html/weather2/metar/metarDisplay.php on line 75

METAR rapporten vliegvelden

   
EBAW - Antwerp
Gewijzigd: 19-10-2017 19:50
Helder  
Helder  
   Wind: ZZO 11.1 km/h
Wind: ZZO 11.1 km/h
Temperatuur: 20°C
Dauwpunt: 13°C
Vochtigheid: 64%
Barometer: 1007 hPa
Zicht: meer dan 10 km
Bewolking: Helder
EBAW 191750Z 16006KT CAVOK 20/13 Q1007 NOSIG
EBLG - Liège
Gewijzigd: 19-10-2017 19:50
Helder  
Helder  
   Wind: ZZO 11.1 km/h
Wind: ZZO 11.1 km/h
Temperatuur: 18°C
Dauwpunt: 11°C
Vochtigheid: 64%
Barometer: 1009 hPa
Zicht: meer dan 10 km
Bewolking: Helder
EBLG 191750Z 16006KT CAVOK 18/11 Q1009 NOSIG
EBCV - Mons/Bergen
Gewijzigd: 19-10-2017 19:25
Bewolking  
Bewolking  
   Wind: ZZW 16.7 km/h
Wind: ZZW 16.7 km/h
Temperatuur: 19°C
Dauwpunt: 14°C
Vochtigheid: 73%
Barometer: 1007 hPa
Bewolking: Bewolking
Zicht: meer dan 10 km
Bewolking: Bewolking 4600 ft
EBCV 191725Z AUTO 21009KT 9999 OVC046/// 19/14 Q1007 BLU
EHBK - Maastricht
Gewijzigd: 19-10-2017 19:25
Gedeeltelijk bewolkt  
Gedeeltelijk bewolkt  
   Wind: ZZO 11.1 km/h
Wind: ZZO 11.1 km/h
Temperatuur: 18°C
Dauwpunt: 13°C
Vochtigheid: 73%
Barometer: 1009 hPa
Bewolking: Gedeeltelijk bewolkt
Zicht: meer dan 10 km
Bewolking: Gedeeltelijk bewolkt
EHBK 191725Z AUTO 16006KT 9999 NSC 18/13 Q1009 NOSIG
EHAM - Schiphol
Gewijzigd: 19-10-2017 19:55
Licht bewolkt  
Licht bewolkt  
   Wind: ZO 16.7 km/h
Wind: ZO 16.7 km/h
Temperatuur: 17°C
Dauwpunt: 14°C
Vochtigheid: 83%
Barometer: 1007 hPa
Bewolking: Licht bewolkt
Zicht: meer dan 10 km
Bewolking: Licht bewolkt 4500 ft
EHAM 191755Z 13009KT 9999 FEW045 17/14 Q1007 NOSIG
EHGG - Eelde
Gewijzigd: 19-10-2017 19:25
Gedeeltelijk bewolkt  
Gedeeltelijk bewolkt  
   Wind: ZO 9.3 km/h
Wind: ZO 9.3 km/h
Temperatuur: 16°C
Dauwpunt: 14°C
Vochtigheid: 88%
Barometer: 1008 hPa
Bewolking: Gedeeltelijk bewolkt
Zicht: 9 km
Bewolking: Gedeeltelijk bewolkt
EHGG 191725Z AUTO 13005KT 090V180 9000 NSC 16/14 Q1008 NOSIG

Script ontwikkeld door  Saratoga-weather.org Aangepast voor de template door  Weerstation Leuven

U vindt ons ook hier:

Het Weer Aktueel

UK Metoffice

European Weather Network

Weather Underground

Benelux Weer Netwerk

AWEKAS

Citizen Weather Observer Program (CWOP)

Apparatuur in gebruik:

Weerstation
Davis VP2

Weerprogramma
consoleWD

Weercomputer
RaspberryPI

Webleverancier
Deziweb

Davis VP2

consoleWD

RaspberryPI

Deziweb